Latest Weather Observations for Bowen Airport AWS

IDQ60801

Issued at 12:02 pm EST Sunday 28 August 2016 (issued every 30 minutes, with the page automatically refreshed every 10 minutes)

About weather observations | Map of weather stations | Latest weather observations for QLD | Other Formats
Station Details ID: 033327 Name: BOWEN AIRPORT AWS Lat: -20.02 Lon: 148.21 Height: 5.9 m
Data from the previous 72 hours. | See also: Recent months at Bowen Airport AWS
Date/Time
EST
Temp
°C
App
Temp
°C
Dew
Point
°C
Rel
Hum
%
Delta-T
°C
Wind Press
QNH
hPa
Press
MSL
hPa
Rain since
9am
mm
Dir  Spd
km/h
Gust
km/h
Spd
kts
Gust
kts
28/12:00pm 21.9 17.7 7.3 39 7.5 ESE 19 24 10 13 1021.8 1021.8 0.0
28/11:30am 21.4 17.1 6.9 39 7.4 SE 19 26 10 14 1022.5 1022.5 0.0
28/11:00am 20.8 17.0 5.6 37 7.5 SE 15 24 8 13 1022.9 1022.9 0.0
28/10:30am 20.5 15.6 4.9 36 7.6 SE 20 28 11 15 1023.1 1023.1 0.0
28/10:00am 20.4 15.1 4.8 36 7.6 SE 22 30 12 16 1023.2 1023.2 0.0
28/09:30am 20.1 14.8 5.0 37 7.4 SE 22 30 12 16 1023.4 1023.4 0.0
28/09:00am 18.8 12.7 2.6 34 7.4 SSE 24 30 13 16 1023.3 1023.3 0.0
28/08:30am 17.8 12.7 2.9 37 6.9 SE 19 26 10 14 1023.1 1023.1 0.0
28/08:00am 16.3 12.3 5.0 47 5.3 SSE 15 20 8 11 1023.0 1023.0 0.0
28/07:30am 14.5 10.9 6.8 60 3.7 SSE 15 20 8 11 1022.7 1022.7 0.0
28/07:00am 9.5 7.7 7.8 89 0.8 SSW 7 11 4 6 1022.5 1022.5 0.0
28/06:30am 6.5 3.4 5.6 94 0.4 SW 11 11 6 6 1022.2 1022.2 0.0
28/06:00am 6.7 4.0 5.5 92 0.5 SW 9 11 5 6 1021.8 1021.8 0.0
28/05:30am 7.5 5.0 6.4 93 0.5 SW 9 11 5 6 1021.4 1021.4 0.0
28/05:00am 8.3 6.4 6.9 91 0.6 SW 6 6 3 3 1021.1 1021.1 0.0
28/04:30am 9.5 8.1 7.4 87 1.0 SW 4 4 2 2 1020.9 1020.9 0.0
28/04:00am 10.4 9.1 7.6 83 1.3 SW 4 6 2 3 1020.7 1020.7 0.0
28/03:30am 12.1 9.9 9.3 83 1.4 S 11 13 6 7 1020.6 1020.6 0.0
28/03:00am 10.2 8.4 7.8 85 1.1 SW 7 9 4 5 1020.9 1020.9 0.0
28/02:30am 14.6 12.0 9.4 71 2.7 S 13 17 7 9 1021.1 1021.1 0.0
28/02:00am 11.0 8.8 9.4 90 0.8 S 11 13 6 7 1021.0 1021.0 0.0
28/01:30am 10.9 8.9 8.7 86 1.1 SW 9 11 5 6 1021.4 1021.4 0.0
28/01:00am 11.3 9.0 9.0 86 1.1 SW 11 13 6 7 1021.5 1021.5 0.0
28/12:30am 12.0 11.1 9.2 83 1.4 S 4 6 2 3 1021.5 1021.5 0.0
28/12:00am 11.9 9.6 9.1 83 1.4 S 11 11 6 6 1021.6 1021.6 0.0
 
Date/Time
EST
Temp
°C
App
Temp
°C
Dew
Point
°C
Rel
Hum
%
Delta-T
°C
Wind Press
QNH
hPa
Press
MSL
hPa
Rain since
9am
mm
Dir  Spd
km/h
Gust
km/h
Spd
kts
Gust
kts
27/11:30pm 12.9 11.7 9.4 79 1.8 S 6 7 3 4 1021.7 1021.7 0.0
27/11:00pm 13.6 11.5 9.6 77 2.0 SSE 11 13 6 7 1021.7 1021.7 0.0
27/10:30pm 13.8 12.0 9.5 75 2.2 SSE 9 9 5 5 1021.6 1021.6 0.0
27/10:00pm 14.0 12.2 9.6 75 2.2 SSE 9 11 5 6 1021.5 1021.5 0.0
27/09:30pm 15.0 13.5 10.6 75 2.3 SSE 9 13 5 7 1021.6 1021.6 0.0
27/09:00pm 15.0 12.9 9.8 71 2.7 SSE 11 11 6 6 1021.5 1021.5 0.0
27/08:30pm 15.7 13.7 10.0 69 3.0 SSE 11 13 6 7 1021.4 1021.4 0.0
27/08:00pm 16.4 14.1 9.1 62 3.8 SSE 11 13 6 7 1021.1 1021.1 0.0
27/07:30pm 18.8 15.9 9.8 56 4.8 ESE 15 20 8 11 1020.7 1020.7 0.0
27/07:00pm 19.0 15.9 10.3 57 4.7 E 17 22 9 12 1020.2 1020.2 0.0
27/06:30pm 18.8 16.3 9.8 56 4.8 E 13 17 7 9 1019.9 1019.9 0.0
27/06:00pm 18.8 17.3 9.3 54 5.0 ENE 7 11 4 6 1019.7 1019.7 0.0
27/05:30pm 19.8 17.8 8.8 49 5.8 ENE 9 17 5 9 1019.3 1019.3 0.0
27/05:00pm 20.5 16.9 8.2 45 6.4 ENE 17 24 9 13 1019.0 1019.0 0.0
27/04:30pm 20.9 17.2 7.9 43 6.7 ENE 17 26 9 14 1018.5 1018.5 0.0
27/04:00pm 21.4 17.2 8.3 43 6.9 ENE 20 28 11 15 1018.2 1018.2 0.0
27/03:30pm 21.6 17.4 7.4 40 7.3 ENE 19 24 10 13 1018.0 1018.0 0.0
27/03:00pm 22.1 17.3 5.5 34 8.3 E 20 28 11 15 1018.2 1018.2 0.0
27/02:30pm 22.4 17.4 3.5 29 9.1 ESE 19 24 10 13 1018.2 1018.2 0.0
27/02:00pm 23.0 17.4 3.5 28 9.4 ESE 22 30 12 16 1018.5 1018.5 0.0
27/01:30pm 22.4 17.1 4.9 32 8.7 ESE 22 30 12 16 1019.1 1019.1 0.0
27/01:00pm 22.1 16.4 4.7 32 8.5 ESE 24 33 13 18 1019.6 1019.6 0.0
27/12:30pm 21.9 15.5 3.1 29 9.0 ESE 26 33 14 18 1019.9 1019.9 0.0
27/12:00pm 21.4 15.1 3.6 31 8.5 ESE 26 32 14 17 1020.4 1020.4 0.0
27/11:30am 21.1 14.7 3.3 31 8.5 SE 26 33 14 18 1020.9 1020.9 0.0
27/11:00am 20.8 15.3 4.0 33 8.0 SE 22 28 12 15 1021.4 1021.4 0.0
27/10:30am 20.4 14.3 4.8 36 7.6 SE 26 33 14 18 1021.7 1021.7 0.0
27/10:00am 20.3 14.0 3.5 33 7.9 SSE 26 33 14 18 1021.7 1021.7 0.0
27/09:30am 19.5 13.3 4.4 37 7.2 SE 26 33 14 18 1021.8 1021.8 0.0
27/09:00am 18.7 12.8 5.9 43 6.3 SE 26 35 14 19 1021.7 1021.7 0.0
27/08:30am 18.3 12.3 5.2 42 6.3 SE 26 35 14 19 1021.6 1021.6 0.0
27/08:00am 17.8 12.8 4.7 42 6.2 SSE 20 28 11 15 1021.5 1021.5 0.0
27/07:30am 16.7 12.3 4.7 45 5.7 SSE 17 22 9 12 1021.2 1021.2 0.0
27/07:00am 16.1 13.0 5.4 49 5.1 S 11 19 6 10 1020.9 1020.9 0.0
27/06:30am 11.8 9.4 7.1 73 2.3 S 9 13 5 7 1020.4 1020.4 0.0
27/06:00am 14.8 11.4 5.9 55 4.2 S 13 19 7 10 1020.0 1020.0 0.0
27/05:30am 15.0 11.3 6.3 56 4.2 S 15 20 8 11 1019.7 1019.7 0.0
27/05:00am 14.2 11.2 7.7 65 3.2 S 13 17 7 9 1019.3 1019.3 0.0
27/04:30am 12.6 10.5 8.1 74 2.2 S 9 15 5 8 1019.1 1019.1 0.0
27/04:00am 13.1 10.8 7.5 69 2.7 S 9 13 5 7 1019.1 1019.1 0.0
27/03:30am 14.5 12.0 8.2 66 3.2 SSE 11 13 6 7 1019.1 1019.1 0.0
27/03:00am 15.1 12.3 8.6 65 3.3 SSE 13 17 7 9 1019.0 1019.0 0.0
27/02:30am 15.7 12.2 8.7 63 3.6 SSE 17 22 9 12 1018.7 1018.7 0.0
27/02:00am 16.1 12.0 8.8 62 3.7 SSE 20 26 11 14 1018.7 1018.7 0.0
27/01:30am 16.5 12.5 9.2 62 3.8 SSE 20 32 11 17 1018.6 1018.6 0.0
27/01:00am 16.8 13.1 10.0 64 3.6 SE 20 26 11 14 1018.8 1018.8 0.0
27/12:30am 17.1 13.6 10.2 64 3.7 SE 19 28 10 15 1018.9 1018.9 0.0
27/12:00am 17.2 13.5 10.1 63 3.7 SE 20 33 11 18 1018.9 1018.9 0.0
 
Date/Time
EST
Temp
°C
App
Temp
°C
Dew
Point
°C
Rel
Hum
%
Delta-T
°C
Wind Press
QNH
hPa
Press
MSL
hPa
Rain since
9am
mm
Dir  Spd
km/h
Gust
km/h
Spd
kts
Gust
kts
26/11:30pm 17.7 13.5 9.8 60 4.2 SE 22 32 12 17 1018.8 1018.8 0.0
26/11:00pm 17.8 14.4 10.7 63 3.8 SSE 19 28 10 15 1018.7 1018.7 0.0
26/10:30pm 18.2 14.6 10.6 61 4.1 SSE 20 30 11 16 1018.6 1018.6 0.0
26/10:00pm 18.2 15.8 12.6 70 3.1 SSE 17 24 9 13 1018.4 1018.4 0.0
26/09:30pm 18.2 16.0 13.3 73 2.8 SSE 17 20 9 11 1018.2 1018.2 0.0
26/09:00pm 18.3 16.5 14.4 78 2.2 SSE 17 22 9 12 1018.2 1018.2 0.0
26/08:30pm 18.6 16.9 14.7 78 2.3 SSE 17 24 9 13 1017.9 1017.9 0.0
26/08:00pm 18.9 16.8 14.8 77 2.4 SSE 19 28 10 15 1017.4 1017.4 0.0
26/07:30pm 19.3 17.6 14.6 74 2.7 SSE 17 24 9 13 1016.9 1016.9 0.0
26/07:00pm 19.7 17.4 14.7 73 2.9 SSE 20 26 11 14 1016.5 1016.5 0.0
26/06:30pm 20.1 17.4 14.5 70 3.3 SE 22 30 12 16 1016.0 1016.0 0.0
26/06:00pm 20.8 18.2 14.9 69 3.5 SSE 22 30 12 16 1015.5 1015.5 0.0
26/05:30pm 21.2 19.2 15.5 70 3.4 SE 20 26 11 14 1015.1 1015.1 0.0
26/05:00pm 21.6 18.2 15.9 70 3.4 SE 28 35 15 19 1014.6 1014.6 0.0
26/04:30pm 23.3 21.9 16.6 66 4.1 ESE 19 26 10 14 1014.1 1014.1 0.0
26/04:00pm 23.0 21.9 17.2 70 3.6 ESE 19 22 10 12 1013.8 1013.8 0.0
26/03:30pm 23.0 22.2 17.2 70 3.6 ESE 17 20 9 11 1013.5 1013.5 0.0
26/03:00pm 24.1 23.4 14.2 54 5.8 S 11 20 6 11 1013.3 1013.3 0.0
26/02:30pm 26.6 24.2 9.9 35 9.3 SW 13 20 7 11 1013.3 1013.3 0.0
26/02:00pm 24.8 21.7 10.3 40 8.0 SSW 17 24 9 13 1013.6 1013.6 0.0
26/01:30pm 25.1 21.2 9.4 37 8.6 SSW 20 30 11 16 1013.9 1013.9 0.0
26/01:00pm 26.1 23.2 9.5 35 9.1 SW 15 22 8 12 1014.2 1014.2 0.0
26/12:30pm 24.4 22.2 10.7 42 7.6 SSW 13 19 7 10 1014.8 1014.8 0.0
26/12:00pm 23.8 21.1 10.5 43 7.3 SSW 15 20 8 11 1015.1 1015.1 0.0
26/11:30am 23.9 21.4 10.9 44 7.2 SSW 15 19 8 10 1015.5 1015.5 0.0
26/11:00am 22.9 20.8 11.0 47 6.6 SW 13 20 7 11 1015.8 1015.8 0.0
26/10:30am 22.5 20.1 12.7 54 5.6 SW 17 22 9 12 1016.3 1016.3 0.0
26/10:00am 20.6 18.9 12.6 60 4.5 SSW 13 17 7 9 1016.3 1016.3 0.0
26/09:30am 19.3 17.9 14.6 74 2.7 SW 15 20 8 11 1016.8 1016.8 0.0
26/09:00am 19.3 19.0 15.4 78 2.3 SSW 11 15 6 8 1016.4 1016.4 1.2
26/08:30am 18.7 18.4 14.4 76 2.5 SSW 9 11 5 6 1016.3 1016.3 1.2
26/08:00am 18.1 17.6 14.8 81 1.9 SSW 11 15 6 8 1016.1 1016.1 1.2
26/07:30am 17.4 16.6 15.0 86 1.4 SSW 13 17 7 9 1015.9 1015.9 1.2
26/07:00am 17.1 16.1 14.6 85 1.4 SSW 13 19 7 10 1015.9 1015.9 1.2
26/06:30am 18.7 20.3 18.2 97 0.3 SW 7 9 4 5 1015.2 1015.2 0.6
26/06:00am 18.9 20.5 18.2 96 0.4 SSW 7 9 4 5 1014.1 1014.1 0.2
26/05:30am 18.8 20.4 18.3 97 0.3 SSW 7 11 4 6 1013.8 1013.8 0.2
26/05:00am 18.9 20.3 17.9 94 0.6 SW 7 13 4 7 1013.5 1013.5 0.2
26/04:30am 19.1 20.0 17.6 91 0.9 SW 9 11 5 6 1013.3 1013.3 0.0
26/04:00am 19.3 21.6 17.6 90 1.0 S 2 4 1 2 1013.1 1013.1 0.0
26/03:30am 19.0 20.6 17.0 88 1.2 S 4 6 2 3 1013.1 1013.1 0.0
26/03:00am 19.4 21.5 17.2 87 1.3 S 2 4 1 2 1013.1 1013.1 0.0
26/02:30am 20.0 20.4 17.2 84 1.7 S 11 13 6 7 1013.1 1013.1 0.0
26/02:00am 20.3 21.2 17.5 84 1.7 SSE 9 11 5 6 1013.6 1013.6 0.0
26/01:30am 20.2 20.8 17.8 86 1.5 S 11 13 6 7 1013.9 1013.9 0.0
26/01:00am 20.0 21.4 17.8 87 1.4 S 7 9 4 5 1014.0 1014.0 0.0
26/12:30am 20.0 21.5 18.0 88 1.2 S 7 9 4 5 1014.2 1014.2 0.0
26/12:00am 20.2 21.7 18.0 87 1.4 S 7 11 4 6 1014.4 1014.4 0.0
 
Date/Time
EST
Temp
°C
App
Temp
°C
Dew
Point
°C
Rel
Hum
%
Delta-T
°C
Wind Press
QNH
hPa
Press
MSL
hPa
Rain since
9am
mm
Dir  Spd
km/h
Gust
km/h
Spd
kts
Gust
kts
25/11:30pm 21.0 21.6 18.6 86 1.5 ESE 13 15 7 8 1014.5 1014.5 0.0
25/11:00pm 20.9 21.1 18.5 86 1.5 SE 15 19 8 10 1014.5 1014.5 0.0
25/10:30pm 21.1 22.1 18.7 86 1.5 ESE 11 15 6 8 1014.8 1014.8 0.0
25/10:00pm 21.1 21.7 18.5 85 1.6 SE 13 19 7 10 1014.5 1014.5 0.0
25/09:30pm 21.1 21.3 18.5 85 1.6 SE 15 19 8 10 1014.4 1014.4 0.0
25/09:00pm 21.2 21.4 18.6 85 1.6 SE 15 20 8 11 1014.3 1014.3 0.0
25/08:30pm 21.5 21.9 18.9 85 1.6 SE 15 20 8 11 1014.3 1014.3 0.0
25/08:00pm 21.6 21.9 18.8 84 1.8 ESE 15 19 8 10 1014.1 1014.1 0.0
25/07:30pm 22.0 22.1 18.4 80 2.3 ESE 15 19 8 10 1013.8 1013.8 0.0
25/07:00pm 22.0 22.7 18.8 82 2.0 E 13 19 7 10 1013.4 1013.4 0.0
25/06:30pm 22.1 22.4 18.7 81 2.1 E 15 19 8 10 1013.1 1013.1 0.0
25/06:00pm 22.2 22.7 18.4 79 2.4 E 13 19 7 10 1012.7 1012.7 0.0
25/05:30pm 22.5 23.9 18.7 79 2.4 E 9 15 5 8 1012.5 1012.5 0.0
25/05:00pm 22.8 23.8 18.6 77 2.6 E 11 15 6 8 1012.0 1011.9 0.0
25/04:30pm 22.9 23.7 18.2 75 2.9 E 11 15 6 8 1011.8 1011.7 0.0
25/04:00pm 23.4 24.5 18.1 72 3.3 E 9 15 5 8 1011.5 1011.4 0.0
25/03:30pm 23.4 23.9 17.4 69 3.7 E 11 13 6 7 1011.4 1011.3 0.0
25/03:00pm 23.4 24.2 17.2 68 3.8 ESE 9 13 5 7 1011.4 1011.3 0.0
25/02:30pm 23.2 24.0 17.2 69 3.7 ESE 9 13 5 7 1011.2 1011.1 0.0
25/02:00pm 23.2 24.6 17.7 71 3.4 ESE 7 11 4 6 1011.6 1011.5 0.0
25/01:30pm 23.1 24.1 17.8 72 3.3 E 9 11 5 6 1011.8 1011.7 0.0
25/01:00pm 22.9 24.6 18.0 74 3.1 E 6 9 3 5 1012.0 1011.9 0.0
25/12:30pm 22.6 24.4 18.2 76 2.8 SE 6 9 3 5 1012.1 1012.1 0.0

Other Formats:

Comma delimited format used in spreadsheet applications
http://www.bom.gov.au/fwo/IDQ60801/IDQ60801.94383.axf

JavaScript Object Notation format (JSON) in row-major order
http://www.bom.gov.au/fwo/IDQ60801/IDQ60801.94383.json